sensor_id;sensor_type;location;lat;lon;timestamp;pressure;altitude;pressure_sealevel;temperature;humidity
40948;BME280;49382;-25.924;28.194;2023-05-19T00:01:53;85088.82;;;15.68;43.91
40948;BME280;49382;-25.924;28.194;2023-05-19T00:04:18;85090.00;;;16.46;42.83
40948;BME280;49382;-25.924;28.194;2023-05-19T00:06:43;85087.93;;;15.65;43.95
40948;BME280;49382;-25.924;28.194;2023-05-19T00:09:10;85085.43;;;16.95;41.92
40948;BME280;49382;-25.924;28.194;2023-05-19T00:11:34;85085.19;;;17.08;41.83
40948;BME280;49382;-25.924;28.194;2023-05-19T00:13:59;85086.85;;;16.63;42.31
40948;BME280;49382;-25.924;28.194;2023-05-19T00:16:25;85081.58;;;16.65;42.00
40948;BME280;49382;-25.924;28.194;2023-05-19T00:18:48;85079.25;;;16.90;41.81
40948;BME280;49382;-25.924;28.194;2023-05-19T00:21:13;85077.82;;;17.09;40.58
40948;BME280;49382;-25.924;28.194;2023-05-19T00:23:38;85077.35;;;16.88;41.11
40948;BME280;49382;-25.924;28.194;2023-05-19T00:26:03;85076.52;;;16.29;42.03
40948;BME280;49382;-25.924;28.194;2023-05-19T00:28:28;85076.24;;;16.02;43.14
40948;BME280;49382;-25.924;28.194;2023-05-19T00:30:54;85076.39;;;15.41;44.27
40948;BME280;49382;-25.924;28.194;2023-05-19T00:33:18;85075.21;;;16.34;42.86
40948;BME280;49382;-25.924;28.194;2023-05-19T00:35:43;85068.18;;;16.93;42.05
40948;BME280;49382;-25.924;28.194;2023-05-19T00:38:08;85072.70;;;16.33;42.02
40948;BME280;49382;-25.924;28.194;2023-05-19T00:40:35;85067.84;;;16.91;41.99
40948;BME280;49382;-25.924;28.194;2023-05-19T00:42:58;85065.88;;;17.05;42.08
40948;BME280;49382;-25.924;28.194;2023-05-19T00:45:24;85068.46;;;16.10;43.36
40948;BME280;49382;-25.924;28.194;2023-05-19T00:47:49;85064.64;;;17.29;41.92
40948;BME280;49382;-25.924;28.194;2023-05-19T00:50:14;85062.29;;;17.21;41.94
40948;BME280;49382;-25.924;28.194;2023-05-19T00:52:39;85062.95;;;16.89;42.07
40948;BME280;49382;-25.924;28.194;2023-05-19T00:55:05;85058.08;;;17.01;41.71
40948;BME280;49382;-25.924;28.194;2023-05-19T00:57:29;85056.89;;;17.31;41.14
40948;BME280;49382;-25.924;28.194;2023-05-19T00:59:54;85055.79;;;17.69;40.61
40948;BME280;49382;-25.924;28.194;2023-05-19T01:02:19;85050.13;;;17.02;41.33
40948;BME280;49382;-25.924;28.194;2023-05-19T01:04:44;85051.48;;;16.20;43.15
40948;BME280;49382;-25.924;28.194;2023-05-19T01:07:09;85048.05;;;16.75;41.22
40948;BME280;49382;-25.924;28.194;2023-05-19T01:09:34;85051.98;;;16.63;42.10
40948;BME280;49382;-25.924;28.194;2023-05-19T01:12:00;85057.65;;;16.87;41.81
40948;BME280;49382;-25.924;28.194;2023-05-19T01:14:24;85060.11;;;17.26;41.45
40948;BME280;49382;-25.924;28.194;2023-05-19T01:16:56;85060.38;;;16.57;42.20
40948;BME280;49382;-25.924;28.194;2023-05-19T01:19:26;85060.64;;;16.65;42.41
40948;BME280;49382;-25.924;28.194;2023-05-19T01:21:49;85061.29;;;16.19;43.17
40948;BME280;49382;-25.924;28.194;2023-05-19T01:26:38;85054.16;;;16.75;42.26
40948;BME280;49382;-25.924;28.194;2023-05-19T01:31:21;85054.59;;;16.69;42.01
40948;BME280;49382;-25.924;28.194;2023-05-19T01:33:46;85055.35;;;16.77;42.49
40948;BME280;49382;-25.924;28.194;2023-05-19T01:36:11;85058.79;;;16.75;42.47
40948;BME280;49382;-25.924;28.194;2023-05-19T01:38:36;85057.91;;;16.51;42.63
40948;BME280;49382;-25.924;28.194;2023-05-19T01:41:01;85055.55;;;17.63;41.14
40948;BME280;49382;-25.924;28.194;2023-05-19T01:43:26;85056.16;;;16.78;41.43
40948;BME280;49382;-25.924;28.194;2023-05-19T01:45:50;85054.99;;;15.99;42.20
40948;BME280;49382;-25.924;28.194;2023-05-19T01:48:15;85053.75;;;15.35;43.82
40948;BME280;49382;-25.924;28.194;2023-05-19T01:50:41;85054.84;;;15.61;44.72
40948;BME280;49382;-25.924;28.194;2023-05-19T01:53:06;85052.60;;;15.84;43.70
40948;BME280;49382;-25.924;28.194;2023-05-19T01:55:31;85050.60;;;15.76;44.29
40948;BME280;49382;-25.924;28.194;2023-05-19T01:58:05;85050.96;;;16.04;44.04
40948;BME280;49382;-25.924;28.194;2023-05-19T02:00:27;85052.75;;;15.41;44.64
40948;BME280;49382;-25.924;28.194;2023-05-19T02:02:54;85056.33;;;16.05;43.43
40948;BME280;49382;-25.924;28.194;2023-05-19T02:05:17;85056.15;;;15.77;43.10
40948;BME280;49382;-25.924;28.194;2023-05-19T02:07:42;85052.96;;;15.47;43.60
40948;BME280;49382;-25.924;28.194;2023-05-19T02:10:07;85045.95;;;15.17;42.37
40948;BME280;49382;-25.924;28.194;2023-05-19T02:12:30;85048.40;;;15.01;44.22
40948;BME280;49382;-25.924;28.194;2023-05-19T02:14:59;85045.53;;;15.75;43.32
40948;BME280;49382;-25.924;28.194;2023-05-19T02:17:18;85041.57;;;15.40;44.10
40948;BME280;49382;-25.924;28.194;2023-05-19T02:19:43;85045.38;;;16.05;43.10
40948;BME280;49382;-25.924;28.194;2023-05-19T02:22:07;85039.73;;;15.44;42.15
40948;BME280;49382;-25.924;28.194;2023-05-19T02:24:32;85038.98;;;15.01;43.76
40948;BME280;49382;-25.924;28.194;2023-05-19T02:26:58;85041.90;;;15.43;43.32
40948;BME280;49382;-25.924;28.194;2023-05-19T02:29:23;85044.25;;;16.45;42.02
40948;BME280;49382;-25.924;28.194;2023-05-19T02:31:48;85042.14;;;15.69;43.52
40948;BME280;49382;-25.924;28.194;2023-05-19T02:34:13;85041.60;;;15.69;43.03
40948;BME280;49382;-25.924;28.194;2023-05-19T02:36:40;85038.16;;;15.05;42.64
40948;BME280;49382;-25.924;28.194;2023-05-19T02:39:03;85039.66;;;15.51;42.02
40948;BME280;49382;-25.924;28.194;2023-05-19T02:41:28;85040.78;;;15.65;42.50
40948;BME280;49382;-25.924;28.194;2023-05-19T02:43:53;85038.72;;;15.97;42.40
40948;BME280;49382;-25.924;28.194;2023-05-19T02:46:18;85033.42;;;15.65;42.25
40948;BME280;49382;-25.924;28.194;2023-05-19T02:48:43;85029.79;;;15.89;41.58
40948;BME280;49382;-25.924;28.194;2023-05-19T02:51:08;85023.73;;;15.86;40.64
40948;BME280;49382;-25.924;28.194;2023-05-19T02:53:33;85022.68;;;15.17;41.94
40948;BME280;49382;-25.924;28.194;2023-05-19T02:55:58;85024.36;;;15.37;43.45
40948;BME280;49382;-25.924;28.194;2023-05-19T02:58:24;85020.25;;;14.87;43.68
40948;BME280;49382;-25.924;28.194;2023-05-19T03:00:49;85024.03;;;14.38;44.19
40948;BME280;49382;-25.924;28.194;2023-05-19T03:03:14;85019.08;;;14.85;43.60
40948;BME280;49382;-25.924;28.194;2023-05-19T03:05:39;85026.57;;;14.74;43.97
40948;BME280;49382;-25.924;28.194;2023-05-19T03:08:04;85029.40;;;14.67;43.33
40948;BME280;49382;-25.924;28.194;2023-05-19T03:10:29;85029.70;;;14.75;42.84
40948;BME280;49382;-25.924;28.194;2023-05-19T03:12:54;85037.45;;;15.22;42.75
40948;BME280;49382;-25.924;28.194;2023-05-19T03:15:19;85044.31;;;15.86;42.88
40948;BME280;49382;-25.924;28.194;2023-05-19T03:17:44;85046.71;;;15.65;42.66
40948;BME280;49382;-25.924;28.194;2023-05-19T03:20:10;85046.21;;;15.60;42.78
40948;BME280;49382;-25.924;28.194;2023-05-19T03:22:34;85046.50;;;15.94;42.37
40948;BME280;49382;-25.924;28.194;2023-05-19T03:24:59;85041.73;;;15.45;43.12
40948;BME280;49382;-25.924;28.194;2023-05-19T03:27:25;85041.35;;;15.92;42.34
40948;BME280;49382;-25.924;28.194;2023-05-19T03:29:50;85042.78;;;15.58;43.29
40948;BME280;49382;-25.924;28.194;2023-05-19T03:32:15;85045.92;;;15.25;43.31
40948;BME280;49382;-25.924;28.194;2023-05-19T03:34:40;85046.86;;;15.98;42.54
40948;BME280;49382;-25.924;28.194;2023-05-19T03:37:05;85043.41;;;15.20;42.19
40948;BME280;49382;-25.924;28.194;2023-05-19T03:39:30;85040.86;;;15.96;41.75
40948;BME280;49382;-25.924;28.194;2023-05-19T03:41:55;85038.12;;;15.55;42.58
40948;BME280;49382;-25.924;28.194;2023-05-19T03:44:20;85037.24;;;16.20;41.76
40948;BME280;49382;-25.924;28.194;2023-05-19T03:46:45;85036.27;;;15.98;41.29
40948;BME280;49382;-25.924;28.194;2023-05-19T03:49:10;85035.44;;;15.79;42.11
40948;BME280;49382;-25.924;28.194;2023-05-19T03:51:35;85033.77;;;16.46;41.62
40948;BME280;49382;-25.924;28.194;2023-05-19T03:54:01;85035.80;;;16.50;41.50
40948;BME280;49382;-25.924;28.194;2023-05-19T03:56:27;85039.33;;;16.30;41.54
40948;BME280;49382;-25.924;28.194;2023-05-19T03:58:52;85047.59;;;16.92;40.42
40948;BME280;49382;-25.924;28.194;2023-05-19T04:01:18;85049.66;;;16.90;40.43
40948;BME280;49382;-25.924;28.194;2023-05-19T04:03:43;85048.85;;;16.68;40.80
40948;BME280;49382;-25.924;28.194;2023-05-19T04:06:09;85054.29;;;16.55;41.03
40948;BME280;49382;-25.924;28.194;2023-05-19T04:08:34;85057.15;;;16.69;40.63
40948;BME280;49382;-25.924;28.194;2023-05-19T04:10:59;85068.46;;;16.39;40.81
40948;BME280;49382;-25.924;28.194;2023-05-19T04:13:25;85072.33;;;16.40;40.79
40948;BME280;49382;-25.924;28.194;2023-05-19T04:15:50;85075.28;;;15.70;41.72
40948;BME280;49382;-25.924;28.194;2023-05-19T04:18:16;85074.25;;;15.17;42.92
40948;BME280;49382;-25.924;28.194;2023-05-19T04:20:41;85078.19;;;14.54;42.94
40948;BME280;49382;-25.924;28.194;2023-05-19T04:23:07;85080.10;;;14.59;44.45
40948;BME280;49382;-25.924;28.194;2023-05-19T04:25:33;85086.21;;;14.85;43.14
40948;BME280;49382;-25.924;28.194;2023-05-19T04:27:58;85094.98;;;15.92;41.74
40948;BME280;49382;-25.924;28.194;2023-05-19T04:30:24;85103.91;;;15.53;42.23
40948;BME280;49382;-25.924;28.194;2023-05-19T04:32:48;85106.52;;;16.53;40.85
40948;BME280;49382;-25.924;28.194;2023-05-19T04:35:13;85108.70;;;16.15;41.37
40948;BME280;49382;-25.924;28.194;2023-05-19T04:37:38;85114.73;;;15.43;41.38
40948;BME280;49382;-25.924;28.194;2023-05-19T04:40:05;85118.73;;;15.86;41.33
40948;BME280;49382;-25.924;28.194;2023-05-19T04:42:29;85118.10;;;15.79;41.61
40948;BME280;49382;-25.924;28.194;2023-05-19T04:44:54;85123.63;;;15.30;42.38
40948;BME280;49382;-25.924;28.194;2023-05-19T04:47:19;85118.90;;;15.52;42.34
40948;BME280;49382;-25.924;28.194;2023-05-19T04:49:44;85124.65;;;15.13;43.13
40948;BME280;49382;-25.924;28.194;2023-05-19T04:52:10;85128.16;;;15.09;43.60
40948;BME280;49382;-25.924;28.194;2023-05-19T04:54:35;85135.55;;;15.46;43.16
40948;BME280;49382;-25.924;28.194;2023-05-19T04:57:00;85137.05;;;16.28;41.67
40948;BME280;49382;-25.924;28.194;2023-05-19T04:59:25;85144.63;;;16.39;42.24
40948;BME280;49382;-25.924;28.194;2023-05-19T05:01:50;85148.42;;;15.38;43.52
40948;BME280;49382;-25.924;28.194;2023-05-19T05:04:15;85148.65;;;15.39;43.93
40948;BME280;49382;-25.924;28.194;2023-05-19T05:06:40;85149.43;;;15.53;44.22
40948;BME280;49382;-25.924;28.194;2023-05-19T05:09:05;85152.84;;;15.58;44.63
40948;BME280;49382;-25.924;28.194;2023-05-19T05:11:31;85151.40;;;15.37;45.18
40948;BME280;49382;-25.924;28.194;2023-05-19T05:13:56;85158.39;;;15.73;44.83
40948;BME280;49382;-25.924;28.194;2023-05-19T05:16:21;85162.42;;;15.65;45.17
40948;BME280;49382;-25.924;28.194;2023-05-19T05:18:46;85159.95;;;15.35;45.30
40948;BME280;49382;-25.924;28.194;2023-05-19T05:21:11;85162.73;;;16.72;43.36
40948;BME280;49382;-25.924;28.194;2023-05-19T05:23:36;85164.24;;;16.55;43.14
40948;BME280;49382;-25.924;28.194;2023-05-19T05:26:09;85168.30;;;17.20;42.49
40948;BME280;49382;-25.924;28.194;2023-05-19T05:28:25;85167.40;;;16.84;43.36
40948;BME280;49382;-25.924;28.194;2023-05-19T05:30:51;85170.70;;;16.39;44.12
40948;BME280;49382;-25.924;28.194;2023-05-19T05:33:16;85173.19;;;16.43;45.10
40948;BME280;49382;-25.924;28.194;2023-05-19T05:35:41;85179.08;;;16.77;44.59
40948;BME280;49382;-25.924;28.194;2023-05-19T05:38:06;85184.12;;;17.21;43.81
40948;BME280;49382;-25.924;28.194;2023-05-19T05:40:31;85187.09;;;17.50;43.97
40948;BME280;49382;-25.924;28.194;2023-05-19T05:42:56;85188.31;;;16.87;43.45
40948;BME280;49382;-25.924;28.194;2023-05-19T05:45:21;85196.21;;;17.55;42.74
40948;BME280;49382;-25.924;28.194;2023-05-19T05:47:47;85195.50;;;17.96;42.10
40948;BME280;49382;-25.924;28.194;2023-05-19T05:50:12;85200.43;;;17.68;42.52
40948;BME280;49382;-25.924;28.194;2023-05-19T05:52:37;85202.55;;;16.91;43.59
40948;BME280;49382;-25.924;28.194;2023-05-19T05:55:02;85198.17;;;17.87;42.42
40948;BME280;49382;-25.924;28.194;2023-05-19T05:57:27;85208.27;;;18.41;41.29
40948;BME280;49382;-25.924;28.194;2023-05-19T05:59:52;85211.40;;;18.98;41.10
40948;BME280;49382;-25.924;28.194;2023-05-19T06:02:17;85215.36;;;18.44;41.23
40948;BME280;49382;-25.924;28.194;2023-05-19T06:04:42;85212.34;;;18.41;41.75
40948;BME280;49382;-25.924;28.194;2023-05-19T06:07:07;85215.52;;;18.58;41.44
40948;BME280;49382;-25.924;28.194;2023-05-19T06:09:32;85211.89;;;18.03;42.07
40948;BME280;49382;-25.924;28.194;2023-05-19T06:11:58;85213.40;;;19.39;39.99
40948;BME280;49382;-25.924;28.194;2023-05-19T06:14:23;85219.63;;;18.86;39.93
40948;BME280;49382;-25.924;28.194;2023-05-19T06:16:48;85221.46;;;18.77;39.64
40948;BME280;49382;-25.924;28.194;2023-05-19T06:19:13;85222.31;;;18.98;40.12
40948;BME280;49382;-25.924;28.194;2023-05-19T06:21:38;85218.15;;;18.24;40.47
40948;BME280;49382;-25.924;28.194;2023-05-19T06:24:03;85222.87;;;18.93;40.50
40948;BME280;49382;-25.924;28.194;2023-05-19T06:26:28;85220.88;;;18.51;40.33
40948;BME280;49382;-25.924;28.194;2023-05-19T06:28:53;85223.42;;;18.77;40.01
40948;BME280;49382;-25.924;28.194;2023-05-19T06:31:18;85221.49;;;18.83;40.25
40948;BME280;49382;-25.924;28.194;2023-05-19T06:33:43;85232.68;;;19.36;39.81
40948;BME280;49382;-25.924;28.194;2023-05-19T06:36:09;85245.31;;;20.50;37.99
40948;BME280;49382;-25.924;28.194;2023-05-19T06:38:33;85249.28;;;20.66;38.81
40948;BME280;49382;-25.924;28.194;2023-05-19T06:40:59;85252.54;;;20.70;38.50
40948;BME280;49382;-25.924;28.194;2023-05-19T06:43:25;85246.06;;;20.97;37.72
40948;BME280;49382;-25.924;28.194;2023-05-19T06:45:51;85257.04;;;21.63;35.84
40948;BME280;49382;-25.924;28.194;2023-05-19T06:48:16;85254.38;;;21.99;35.34
40948;BME280;49382;-25.924;28.194;2023-05-19T06:50:42;85256.12;;;21.97;35.74
40948;BME280;49382;-25.924;28.194;2023-05-19T06:53:08;85258.40;;;24.56;32.26
40948;BME280;49382;-25.924;28.194;2023-05-19T06:55:34;85273.78;;;29.35;25.83
40948;BME280;49382;-25.924;28.194;2023-05-19T06:58:00;85265.93;;;32.02;22.66
40948;BME280;49382;-25.924;28.194;2023-05-19T07:00:26;85275.89;;;33.87;20.80
40948;BME280;49382;-25.924;28.194;2023-05-19T07:02:51;85274.30;;;37.05;18.01
40948;BME280;49382;-25.924;28.194;2023-05-19T07:05:17;85270.68;;;37.41;16.69
40948;BME280;49382;-25.924;28.194;2023-05-19T07:07:43;85272.93;;;37.85;16.03
40948;BME280;49382;-25.924;28.194;2023-05-19T07:10:10;85271.33;;;36.95;16.80
40948;BME280;49382;-25.924;28.194;2023-05-19T07:12:34;85270.24;;;38.58;14.66
40948;BME280;49382;-25.924;28.194;2023-05-19T07:15:00;85264.70;;;40.40;14.23
40948;BME280;49382;-25.924;28.194;2023-05-19T07:17:26;85263.90;;;40.73;13.37
40948;BME280;49382;-25.924;28.194;2023-05-19T07:19:52;85268.52;;;42.44;12.54
40948;BME280;49382;-25.924;28.194;2023-05-19T07:22:18;85263.24;;;40.27;13.72
40948;BME280;49382;-25.924;28.194;2023-05-19T07:24:44;85263.83;;;39.73;13.32
40948;BME280;49382;-25.924;28.194;2023-05-19T07:27:09;85263.98;;;35.50;16.45
40948;BME280;49382;-25.924;28.194;2023-05-19T07:29:36;85274.62;;;39.45;14.11
40948;BME280;49382;-25.924;28.194;2023-05-19T07:32:01;85274.35;;;38.41;13.90
40948;BME280;49382;-25.924;28.194;2023-05-19T07:34:27;85266.90;;;39.44;14.11
40948;BME280;49382;-25.924;28.194;2023-05-19T07:36:52;85257.27;;;32.62;17.91
40948;BME280;49382;-25.924;28.194;2023-05-19T07:39:18;85265.42;;;40.72;13.40
40948;BME280;49382;-25.924;28.194;2023-05-19T07:41:44;85275.13;;;42.16;12.84
40948;BME280;49382;-25.924;28.194;2023-05-19T07:44:10;85274.83;;;41.90;12.50
40948;BME280;49382;-25.924;28.194;2023-05-19T07:46:36;85270.23;;;32.03;18.66
40948;BME280;49382;-25.924;28.194;2023-05-19T07:49:01;85266.12;;;30.12;21.23
40948;BME280;49382;-25.924;28.194;2023-05-19T07:51:27;85280.72;;;37.44;15.85
40948;BME280;49382;-25.924;28.194;2023-05-19T07:53:52;85282.28;;;40.74;13.28
40948;BME280;49382;-25.924;28.194;2023-05-19T07:56:18;85289.89;;;44.19;11.02
40948;BME280;49382;-25.924;28.194;2023-05-19T07:58:44;85274.96;;;39.78;12.90
40948;BME280;49382;-25.924;28.194;2023-05-19T08:01:10;85268.13;;;33.05;17.70
40948;BME280;49382;-25.924;28.194;2023-05-19T08:03:35;85265.30;;;28.92;21.69
40948;BME280;49382;-25.924;28.194;2023-05-19T08:06:01;85264.45;;;31.52;20.05
40948;BME280;49382;-25.924;28.194;2023-05-19T08:08:27;85262.28;;;27.90;23.37
40948;BME280;49382;-25.924;28.194;2023-05-19T08:10:53;85271.16;;;36.57;16.50
40948;BME280;49382;-25.924;28.194;2023-05-19T08:13:18;85274.23;;;41.16;13.12
40948;BME280;49382;-25.924;28.194;2023-05-19T08:15:44;85274.12;;;37.14;15.04
40948;BME280;49382;-25.924;28.194;2023-05-19T08:18:10;85279.76;;;44.04;10.68
40948;BME280;49382;-25.924;28.194;2023-05-19T08:20:36;85276.02;;;45.99;9.85
40948;BME280;49382;-25.924;28.194;2023-05-19T08:23:01;85274.12;;;46.78;9.09
40948;BME280;49382;-25.924;28.194;2023-05-19T08:25:26;85276.19;;;48.56;7.89
40948;BME280;49382;-25.924;28.194;2023-05-19T08:27:52;85281.02;;;49.98;7.62
40948;BME280;49382;-25.924;28.194;2023-05-19T08:30:17;85271.16;;;45.25;9.41
40948;BME280;49382;-25.924;28.194;2023-05-19T08:32:43;85273.76;;;48.63;8.25
40948;BME280;49382;-25.924;28.194;2023-05-19T08:35:09;85278.89;;;50.57;7.13
40948;BME280;49382;-25.924;28.194;2023-05-19T08:37:34;85268.81;;;48.11;7.81
40948;BME280;49382;-25.924;28.194;2023-05-19T08:40:00;85270.35;;;50.71;7.11
40948;BME280;49382;-25.924;28.194;2023-05-19T08:42:25;85261.67;;;48.52;7.73
40948;BME280;49382;-25.924;28.194;2023-05-19T08:44:51;85254.95;;;46.50;8.12
40948;BME280;49382;-25.924;28.194;2023-05-19T08:47:17;85260.48;;;48.54;7.59
40948;BME280;49382;-25.924;28.194;2023-05-19T08:49:44;85259.67;;;48.23;7.92
40948;BME280;49382;-25.924;28.194;2023-05-19T08:52:16;85260.98;;;51.57;6.27
40948;BME280;49382;-25.924;28.194;2023-05-19T08:54:36;85258.89;;;50.08;6.35
40948;BME280;49382;-25.924;28.194;2023-05-19T08:57:00;85256.75;;;46.10;8.30
40948;BME280;49382;-25.924;28.194;2023-05-19T08:59:24;85255.09;;;49.48;6.61
40948;BME280;49382;-25.924;28.194;2023-05-19T09:01:50;85235.60;;;41.98;10.23
40948;BME280;49382;-25.924;28.194;2023-05-19T09:04:16;85216.57;;;40.33;10.94
40948;BME280;49382;-25.924;28.194;2023-05-19T09:06:41;85211.57;;;35.32;15.16
40948;BME280;49382;-25.924;28.194;2023-05-19T09:09:07;85205.89;;;34.49;16.22
40948;BME280;49382;-25.924;28.194;2023-05-19T09:11:32;85206.35;;;32.15;18.34
40948;BME280;49382;-25.924;28.194;2023-05-19T09:13:57;85198.79;;;28.95;21.21
40948;BME280;49382;-25.924;28.194;2023-05-19T09:16:23;85200.35;;;30.24;20.13
40948;BME280;49382;-25.924;28.194;2023-05-19T09:18:53;85199.77;;;28.95;22.14
40948;BME280;49382;-25.924;28.194;2023-05-19T09:21:14;85198.12;;;28.97;21.32
40948;BME280;49382;-25.924;28.194;2023-05-19T09:23:40;85196.12;;;27.79;22.66
40948;BME280;49382;-25.924;28.194;2023-05-19T09:26:05;85200.81;;;26.88;23.35
40948;BME280;49382;-25.924;28.194;2023-05-19T09:28:32;85197.99;;;27.41;23.51
40948;BME280;49382;-25.924;28.194;2023-05-19T09:31:01;85194.00;;;26.48;25.35
40948;BME280;49382;-25.924;28.194;2023-05-19T09:33:22;85188.38;;;25.62;24.42
40948;BME280;49382;-25.924;28.194;2023-05-19T09:35:47;85190.66;;;26.01;24.93
40948;BME280;49382;-25.924;28.194;2023-05-19T09:38:17;85186.40;;;25.83;23.47
40948;BME280;49382;-25.924;28.194;2023-05-19T09:40:39;85182.95;;;26.40;24.10
40948;BME280;49382;-25.924;28.194;2023-05-19T09:43:07;85182.35;;;25.70;25.45
40948;BME280;49382;-25.924;28.194;2023-05-19T09:45:31;85175.25;;;25.59;25.30
40948;BME280;49382;-25.924;28.194;2023-05-19T09:47:56;85167.90;;;25.23;24.54
40948;BME280;49382;-25.924;28.194;2023-05-19T09:50:22;85170.01;;;26.01;22.69
40948;BME280;49382;-25.924;28.194;2023-05-19T09:52:47;85165.82;;;25.67;23.74
40948;BME280;49382;-25.924;28.194;2023-05-19T09:55:13;85159.31;;;25.33;24.22
40948;BME280;49382;-25.924;28.194;2023-05-19T09:57:38;85163.32;;;25.86;24.51
40948;BME280;49382;-25.924;28.194;2023-05-19T10:00:05;85152.81;;;24.62;24.65
40948;BME280;49382;-25.924;28.194;2023-05-19T10:02:30;85155.81;;;25.64;23.68
40948;BME280;49382;-25.924;28.194;2023-05-19T10:04:55;85148.74;;;25.74;23.91
40948;BME280;49382;-25.924;28.194;2023-05-19T10:07:22;85136.90;;;24.96;25.03
40948;BME280;49382;-25.924;28.194;2023-05-19T10:09:48;85138.89;;;25.36;25.33
40948;BME280;49382;-25.924;28.194;2023-05-19T10:12:11;85136.00;;;25.28;24.39
40948;BME280;49382;-25.924;28.194;2023-05-19T10:14:37;85130.17;;;25.32;25.15
40948;BME280;49382;-25.924;28.194;2023-05-19T10:17:03;85128.56;;;25.03;24.58
40948;BME280;49382;-25.924;28.194;2023-05-19T10:19:29;85118.61;;;25.03;24.06
40948;BME280;49382;-25.924;28.194;2023-05-19T10:21:55;85118.49;;;25.44;22.87
40948;BME280;49382;-25.924;28.194;2023-05-19T10:24:20;85120.25;;;26.21;24.37
40948;BME280;49382;-25.924;28.194;2023-05-19T10:26:50;85113.03;;;25.63;23.91
40948;BME280;49382;-25.924;28.194;2023-05-19T10:29:14;85104.47;;;24.01;25.56
40948;BME280;49382;-25.924;28.194;2023-05-19T10:31:39;85101.80;;;25.40;23.24
40948;BME280;49382;-25.924;28.194;2023-05-19T10:34:22;85097.53;;;24.03;25.41
40948;BME280;49382;-25.924;28.194;2023-05-19T10:36:38;85094.37;;;24.77;24.02
40948;BME280;49382;-25.924;28.194;2023-05-19T10:39:02;85088.77;;;24.16;24.74
40948;BME280;49382;-25.924;28.194;2023-05-19T10:41:27;85089.46;;;25.37;24.73
40948;BME280;49382;-25.924;28.194;2023-05-19T10:43:53;85087.68;;;25.86;23.53
40948;BME280;49382;-25.924;28.194;2023-05-19T10:46:12;85079.91;;;25.22;24.34
40948;BME280;49382;-25.924;28.194;2023-05-19T10:48:38;85077.39;;;25.10;24.15
40948;BME280;49382;-25.924;28.194;2023-05-19T10:51:04;85074.74;;;25.33;22.89
40948;BME280;49382;-25.924;28.194;2023-05-19T10:53:31;85063.85;;;24.75;23.89
40948;BME280;49382;-25.924;28.194;2023-05-19T10:55:55;85063.51;;;25.33;19.98
40948;BME280;49382;-25.924;28.194;2023-05-19T11:00:47;85051.50;;;24.92;21.05
40948;BME280;49382;-25.924;28.194;2023-05-19T11:03:14;85050.73;;;24.93;20.02
40948;BME280;49382;-25.924;28.194;2023-05-19T11:05:38;85048.98;;;25.03;19.72
40948;BME280;49382;-25.924;28.194;2023-05-19T11:08:05;85042.92;;;25.17;20.47
40948;BME280;49382;-25.924;28.194;2023-05-19T11:10:30;85043.74;;;24.53;20.62
40948;BME280;49382;-25.924;28.194;2023-05-19T11:12:57;85039.45;;;24.88;20.30
40948;BME280;49382;-25.924;28.194;2023-05-19T11:15:25;85044.07;;;24.69;20.90
40948;BME280;49382;-25.924;28.194;2023-05-19T11:17:48;85039.53;;;24.74;21.30
40948;BME280;49382;-25.924;28.194;2023-05-19T11:20:21;85035.70;;;25.04;20.82
40948;BME280;49382;-25.924;28.194;2023-05-19T11:22:40;85033.30;;;25.24;20.21
40948;BME280;49382;-25.924;28.194;2023-05-19T11:25:04;85030.54;;;24.97;20.93
40948;BME280;49382;-25.924;28.194;2023-05-19T11:27:32;85017.83;;;24.31;21.32
40948;BME280;49382;-25.924;28.194;2023-05-19T11:29:58;85019.01;;;24.37;19.16
40948;BME280;49382;-25.924;28.194;2023-05-19T11:32:24;85025.31;;;24.80;20.17
40948;BME280;49382;-25.924;28.194;2023-05-19T11:34:48;85020.74;;;24.80;17.62
40948;BME280;49382;-25.924;28.194;2023-05-19T11:37:13;85018.72;;;24.95;18.25
40948;BME280;49382;-25.924;28.194;2023-05-19T11:39:39;85012.76;;;24.59;18.45
40948;BME280;49382;-25.924;28.194;2023-05-19T11:42:05;85018.65;;;24.52;17.82
40948;BME280;49382;-25.924;28.194;2023-05-19T11:44:30;85019.53;;;23.69;16.67
40948;BME280;49382;-25.924;28.194;2023-05-19T11:46:56;85019.14;;;23.81;17.58
40948;BME280;49382;-25.924;28.194;2023-05-19T11:49:22;85008.30;;;24.35;17.35
40948;BME280;49382;-25.924;28.194;2023-05-19T11:51:48;85010.67;;;24.50;17.53
40948;BME280;49382;-25.924;28.194;2023-05-19T11:54:13;85017.66;;;24.49;17.91
40948;BME280;49382;-25.924;28.194;2023-05-19T11:56:40;85016.52;;;24.75;17.73
40948;BME280;49382;-25.924;28.194;2023-05-19T11:59:05;85011.50;;;24.45;17.29
40948;BME280;49382;-25.924;28.194;2023-05-19T12:01:31;85021.07;;;23.48;17.60
40948;BME280;49382;-25.924;28.194;2023-05-19T12:03:57;85010.17;;;24.23;18.37
40948;BME280;49382;-25.924;28.194;2023-05-19T12:06:24;85016.79;;;24.27;17.73
40948;BME280;49382;-25.924;28.194;2023-05-19T12:08:50;85009.95;;;24.37;17.22
40948;BME280;49382;-25.924;28.194;2023-05-19T12:11:13;85013.69;;;24.79;17.13
40948;BME280;49382;-25.924;28.194;2023-05-19T12:13:38;85006.10;;;24.21;16.69
40948;BME280;49382;-25.924;28.194;2023-05-19T12:16:04;85010.15;;;24.78;16.66
40948;BME280;49382;-25.924;28.194;2023-05-19T12:18:29;85006.16;;;24.46;16.75
40948;BME280;49382;-25.924;28.194;2023-05-19T12:20:55;85012.13;;;23.71;17.12
40948;BME280;49382;-25.924;28.194;2023-05-19T12:23:20;85008.92;;;24.21;16.70
40948;BME280;49382;-25.924;28.194;2023-05-19T12:25:46;85011.41;;;23.92;16.81
40948;BME280;49382;-25.924;28.194;2023-05-19T12:28:12;85010.95;;;22.98;17.32
40948;BME280;49382;-25.924;28.194;2023-05-19T12:30:37;85015.65;;;23.42;17.30
40948;BME280;49382;-25.924;28.194;2023-05-19T12:33:03;85009.81;;;22.57;18.08
40948;BME280;49382;-25.924;28.194;2023-05-19T12:35:30;85015.00;;;22.19;17.47
40948;BME280;49382;-25.924;28.194;2023-05-19T12:37:55;85012.65;;;23.13;16.92